Key West, FL

10:35 PM EST on February 09, 2016 (GMT -0500)
Big Coppitt Key Gulfside | | Change Station
CLOSE
Current Station
Personal Weather Station
Location: Key West, FL
Elevation: 31 ft
Nearby Weather Stations

Elev 31 ft 24.60 °N, 81.67 °W | Updated 8 minutes ago

Mostly Cloudy
Mostly Cloudy
65.3 °F
Feels Like 65.3 °F
N
1.1
Wind Variable Wind from South

Today
High -- | Low -- °F
--% Chance of Precip.
Yesterday
High -- | Low -- °F
Precip. -- in
Pressure 30.14 in
Visibility 10.0 miles
Clouds Scattered Clouds 4400 ft
Scattered Clouds 5000 ft
Mostly Cloudy 6500 ft
Dew Point 56 °F
Humidity 71%
Rainfall 0.00 in
Snow Depth Not available.
7:04 AM 6:17 PM
Waxing Crescent, 3% visible
METAR KEYW 100253Z AUTO 32010KT 10SM SCT044 SCT050 BKN065 19/14 A3013 RMK AO2 SLP204 T01890144 51008
Pressure 30.14 in
Visibility 10.0 miles
Clouds Scattered Clouds 4400 ft
Scattered Clouds 5000 ft
Mostly Cloudy 6500 ft
Dew Point 56 °F
Humidity 71%
Rainfall 0.00 in
Snow Depth Not available.
7:04 AM 6:17 PM
Waxing Crescent, 3% visible
METAR KEYW 100253Z AUTO 32010KT 10SM SCT044 SCT050 BKN065 19/14 A3013 RMK AO2 SLP204 T01890144 51008

10-Day Weather Forecast

Almanac

Astronomy

Feb. 09, 2016 Rise Set
Actual Time
Civil Twilight
Nautical Twilight
Astronomical Twilight
Moon
Length of Visible Light
Length of Day
Tomorrow will be .
, % of the Moon is Illuminated

Today's Extremes

State Highs State Lows

Community

WunderPhotos

Upload Photos

1,891,792 photos uploaded!

WunderBlog® & News

Nearby

Air Quality

  Air Quality AQ Index Pollutant
Not available.

Snow Depth

Station Depth Elevation

Earthquake Activity

City Distance Mag. Time & Date
Minimum magnitude displayed is 2.5.

Coastal Water Temperatures

Place Temperature

Stations

Nearby Weather Stations

Station Location Temp. Windchill Dew Point Humidity Wind Precip. Elev Updated Type
                   

Watches & Warnings

There are currently no watches in effect.